createdAt,value
2018-02-12T00:00:00.378Z,100008.93
2018-02-12T00:02:27.950Z,100015.95
2018-02-12T00:04:55.519Z,100027.05
2018-02-12T00:07:23.147Z,100018.54
2018-02-12T00:09:50.718Z,100018.27
2018-02-12T00:12:18.363Z,100019.94
2018-02-12T00:14:45.934Z,100018.07
2018-02-12T00:17:13.508Z,100019.89
2018-02-12T00:19:41.082Z,100026.40
2018-02-12T00:22:08.746Z,100031.55
2018-02-12T00:24:36.324Z,100030.27
2018-02-12T00:27:03.918Z,100035.88
2018-02-12T00:29:31.536Z,100034.36
2018-02-12T00:31:59.153Z,100032.42
2018-02-12T00:34:26.776Z,100033.84
2018-02-12T00:36:54.378Z,100034.91
2018-02-12T00:39:22.895Z,100035.32
2018-02-12T00:41:50.476Z,100049.09
2018-02-12T00:44:18.047Z,100053.92
2018-02-12T00:46:45.619Z,100049.94
2018-02-12T00:49:13.246Z,100056.52
2018-02-12T00:51:40.866Z,100055.47
2018-02-12T00:54:08.467Z,100055.23
2018-02-12T00:56:36.084Z,100053.61
2018-02-12T00:59:03.666Z,100055.51
2018-02-12T01:01:31.286Z,100059.16
2018-02-12T01:03:58.875Z,100056.19
2018-02-12T01:06:26.524Z,100066.27
2018-02-12T01:08:54.102Z,100069.21
2018-02-12T01:11:21.798Z,100062.77
2018-02-12T01:13:49.377Z,100077.89
2018-02-12T01:16:17.054Z,100084.22
2018-02-12T01:18:44.628Z,100086.67
2018-02-12T01:21:12.204Z,100085.34
2018-02-12T01:23:39.838Z,100085.84
2018-02-12T01:26:07.426Z,100081.48
2018-02-12T01:28:35.053Z,100093.18
2018-02-12T01:31:02.694Z,100097.75
2018-02-12T01:33:30.279Z,100100.42
2018-02-12T01:35:57.913Z,100100.17
2018-02-12T01:38:25.528Z,100093.53
2018-02-12T01:40:53.192Z,100094.44
2018-02-12T01:43:20.769Z,100093.15
2018-02-12T01:45:48.380Z,100102.27
2018-02-12T01:48:16.002Z,100098.78
2018-02-12T01:50:43.577Z,100103.99
2018-02-12T01:53:11.199Z,100104.15
2018-02-12T01:55:38.916Z,100101.54
2018-02-12T01:58:06.506Z,100093.67
2018-02-12T02:00:34.190Z,100105.01
2018-02-12T02:03:01.767Z,100103.00
2018-02-12T02:05:29.387Z,100114.13
2018-02-12T02:07:56.973Z,100109.02
2018-02-12T02:10:24.686Z,100112.21
2018-02-12T02:12:52.280Z,100115.39
2018-02-12T02:15:19.910Z,100120.73
2018-02-12T02:17:47.538Z,100123.82
2018-02-12T02:20:15.166Z,100123.98
2018-02-12T02:22:42.747Z,100120.91
2018-02-12T02:25:10.330Z,100116.86
2018-02-12T02:27:37.921Z,100122.86
2018-02-12T02:30:05.510Z,100122.81
2018-02-12T02:32:33.095Z,100129.56
2018-02-12T02:35:00.675Z,100122.20
2018-02-12T02:37:28.367Z,100128.50
2018-02-12T02:39:55.962Z,100131.58
2018-02-12T02:42:23.550Z,100129.69
2018-02-12T02:44:51.250Z,100128.91
2018-02-12T02:47:18.851Z,100129.89
2018-02-12T02:49:47.266Z,100132.13
2018-02-12T02:52:14.854Z,100130.14
2018-02-12T02:54:42.549Z,100134.50
2018-02-12T02:57:10.174Z,100132.39
2018-02-12T02:59:39.366Z,100141.38
2018-02-12T03:02:06.955Z,100143.44
2018-02-12T03:04:34.551Z,100141.73
2018-02-12T03:07:02.134Z,100146.23
2018-02-12T03:09:29.789Z,100140.41
2018-02-12T03:11:57.413Z,100147.76
2018-02-12T03:14:25.907Z,100144.95
2018-02-12T03:16:54.340Z,100144.27
2018-02-12T03:19:22.698Z,100141.77
2018-02-12T03:21:50.273Z,100148.67
2018-02-12T03:24:17.858Z,100147.27
2018-02-12T03:26:45.435Z,100149.16
2018-02-12T03:29:13.070Z,100149.06
2018-02-12T03:31:40.733Z,100146.20
2018-02-12T03:34:08.354Z,100144.02
2018-02-12T03:36:35.958Z,100154.54
2018-02-12T03:39:03.546Z,100155.75
2018-02-12T03:41:31.129Z,100151.64
2018-02-12T03:43:58.742Z,100148.50
2018-02-12T03:46:26.403Z,100148.27
2018-02-12T03:48:54.026Z,100152.20
2018-02-12T03:51:21.619Z,100157.89
2018-02-12T03:53:49.235Z,100157.63
2018-02-12T03:56:17.615Z,100159.82
2018-02-12T03:58:45.336Z,100155.56
2018-02-12T04:01:13.871Z,100164.40
2018-02-12T04:03:42.243Z,100158.59
2018-02-12T04:06:10.710Z,100160.47
2018-02-12T04:08:39.194Z,100164.02
2018-02-12T04:11:07.587Z,100167.87
2018-02-12T04:13:35.994Z,100161.06
2018-02-12T04:16:04.472Z,100166.11
2018-02-12T04:18:32.922Z,100166.44
2018-02-12T04:21:01.314Z,100170.06
2018-02-12T04:23:28.898Z,100176.05
2018-02-12T04:25:56.495Z,100174.06
2018-02-12T04:28:24.956Z,100175.16
2018-02-12T04:30:53.348Z,100174.35
2018-02-12T04:33:20.934Z,100182.51
2018-02-12T04:35:48.586Z,100182.94
2018-02-12T04:38:16.170Z,100182.44
2018-02-12T04:40:44.875Z,100172.64
2018-02-12T04:43:12.497Z,100180.78
2018-02-12T04:45:40.808Z,100181.92
2018-02-12T04:48:09.208Z,100176.45
2018-02-12T04:50:37.531Z,100172.96
2018-02-12T04:53:05.891Z,100168.91
2018-02-12T04:55:33.522Z,100168.73
2018-02-12T04:58:01.116Z,100175.52
2018-02-12T05:00:29.766Z,100176.72
2018-02-12T05:02:58.188Z,100175.77
2018-02-12T05:05:25.854Z,100183.34
2018-02-12T05:07:53.430Z,100180.09
2018-02-12T05:10:21.129Z,100191.20
2018-02-12T05:12:48.706Z,100184.41
2018-02-12T05:15:16.316Z,100192.05
2018-02-12T05:17:44.846Z,100193.47
2018-02-12T05:20:13.302Z,100187.45
2018-02-12T05:22:41.040Z,100189.33
2018-02-12T05:25:09.518Z,100202.58
2018-02-12T05:27:37.916Z,100206.29
2018-02-12T05:30:06.307Z,100212.88
2018-02-12T05:32:33.931Z,100208.73
2018-02-12T05:35:01.531Z,100211.62
2018-02-12T05:37:30.272Z,100216.00
2018-02-12T05:39:58.639Z,100220.30
2018-02-12T05:42:27.017Z,100224.06
2018-02-12T05:44:54.636Z,100224.06
2018-02-12T05:47:22.218Z,100217.73
2018-02-12T05:49:49.794Z,100226.22
2018-02-12T05:52:17.389Z,100231.38
2018-02-12T05:54:44.974Z,100236.82
2018-02-12T05:57:12.555Z,100238.97
2018-02-12T05:59:40.133Z,100240.95
2018-02-12T06:02:07.704Z,100240.34
2018-02-12T06:04:35.279Z,100243.75
2018-02-12T06:07:02.899Z,100243.63
2018-02-12T06:09:31.219Z,100246.19
2018-02-12T06:11:58.802Z,100250.50
2018-02-12T06:14:26.374Z,100252.55
2018-02-12T06:16:53.946Z,100263.10
2018-02-12T06:19:21.522Z,100259.34
2018-02-12T06:21:49.145Z,100259.26
2018-02-12T06:24:17.731Z,100264.39
2018-02-12T06:26:45.317Z,100263.92
2018-02-12T06:29:12.900Z,100265.67
2018-02-12T06:31:40.510Z,100264.72
2018-02-12T06:34:08.869Z,100273.55
2018-02-12T06:36:36.549Z,100277.30
2018-02-12T06:39:04.176Z,100285.65
2018-02-12T06:41:31.758Z,100289.91
2018-02-12T06:43:59.404Z,100289.88
2018-02-12T06:46:27.098Z,100292.88
2018-02-12T06:48:54.678Z,100296.99
2018-02-12T06:51:23.164Z,100296.03
2018-02-12T06:53:50.807Z,100290.88
2018-02-12T06:56:18.475Z,100299.84
2018-02-12T06:58:46.057Z,100304.28
2018-02-12T07:01:14.457Z,100306.70
2018-02-12T07:03:42.030Z,100301.34
2018-02-12T07:06:10.438Z,100309.92
2018-02-12T07:08:38.019Z,100312.91
2018-02-12T07:11:06.439Z,100312.66
2018-02-12T07:13:34.056Z,100310.74
2018-02-12T07:16:02.680Z,100311.86
2018-02-12T07:18:31.158Z,100311.70
2018-02-12T07:20:59.527Z,100319.58
2018-02-12T07:23:27.875Z,100326.37
2018-02-12T07:25:55.451Z,100320.36
2018-02-12T07:28:23.843Z,100320.89
2018-02-12T07:30:52.163Z,100325.84
2018-02-12T07:33:20.478Z,100323.87
2018-02-12T07:35:48.826Z,100327.63
2018-02-12T07:38:16.409Z,100330.05
2018-02-12T07:40:44.903Z,100333.18
2018-02-12T07:43:13.294Z,100336.05
2018-02-12T07:45:40.911Z,100334.12
2018-02-12T07:48:09.401Z,100335.22
2018-02-12T07:50:37.090Z,100328.81
2018-02-12T07:53:05.624Z,100330.78
2018-02-12T07:55:33.207Z,100334.86
2018-02-12T07:58:01.675Z,100337.73
2018-02-12T08:00:29.985Z,100339.58
2018-02-12T08:02:58.262Z,100348.16
2018-02-12T08:05:25.844Z,100345.81
2018-02-12T08:07:54.131Z,100350.45
2018-02-12T08:10:21.763Z,100354.30
2018-02-12T08:12:50.260Z,100360.55
2018-02-12T08:15:17.836Z,100364.36
2018-02-12T08:17:46.331Z,100370.14
2018-02-12T08:20:13.951Z,100381.38
2018-02-12T08:22:42.444Z,100384.56
2018-02-12T08:25:10.062Z,100393.57
2018-02-12T08:27:37.718Z,100395.46
2018-02-12T08:30:05.303Z,100396.09
2018-02-12T08:32:33.651Z,100401.23
2018-02-12T08:35:01.234Z,100400.37
2018-02-12T08:37:29.805Z,100398.43
2018-02-12T08:39:57.385Z,100409.25
2018-02-12T08:42:25.810Z,100411.16
2018-02-12T08:44:53.726Z,100415.27
2018-02-12T08:47:22.247Z,100417.05
2018-02-12T08:49:50.521Z,100417.56
2018-02-12T08:52:18.137Z,100415.70
2018-02-12T08:54:46.512Z,100426.80
2018-02-12T08:57:15.027Z,100427.34
2018-02-12T08:59:42.604Z,100427.39
2018-02-12T09:02:10.291Z,100430.13
2018-02-12T09:04:37.895Z,100432.66
2018-02-12T09:07:05.472Z,100433.55
2018-02-12T09:09:33.158Z,100439.91
2018-02-12T09:12:00.738Z,100434.41
2018-02-12T09:14:28.314Z,100450.95
2018-02-12T09:16:55.892Z,100445.50
2018-02-12T09:19:23.467Z,100453.22
2018-02-12T09:21:51.067Z,100457.28
2018-02-12T09:24:19.548Z,100461.62
2018-02-12T09:26:47.126Z,100458.09
2018-02-12T09:29:14.772Z,100463.39
2018-02-12T09:31:42.350Z,100471.98
2018-02-12T09:34:09.923Z,100470.08
2018-02-12T09:36:37.503Z,100471.44
2018-02-12T09:39:05.070Z,100472.31
2018-02-12T09:41:33.635Z,100475.58
2018-02-12T09:44:01.210Z,100467.41
2018-02-12T09:46:28.785Z,100482.63
2018-02-12T09:48:56.358Z,100482.42
2018-02-12T09:51:23.942Z,100489.92
2018-02-12T09:53:51.606Z,100490.06
2018-02-12T09:56:19.182Z,100488.44
2018-02-12T09:58:46.807Z,100492.45
2018-02-12T10:01:14.391Z,100493.42
2018-02-12T10:03:42.003Z,100502.39
2018-02-12T10:06:10.364Z,100499.86
2018-02-12T10:08:37.941Z,100506.44
2018-02-12T10:11:05.509Z,100507.64
2018-02-12T10:13:33.226Z,100509.80
2018-02-12T10:16:00.838Z,100509.77
2018-02-12T10:18:29.119Z,100507.21
2018-02-12T10:20:56.747Z,100501.52
2018-02-12T10:23:24.413Z,100507.08
2018-02-12T10:25:52.081Z,100511.52
2018-02-12T10:28:19.757Z,100512.47
2018-02-12T10:30:47.370Z,100522.04
2018-02-12T10:33:14.948Z,100523.00
2018-02-12T10:35:42.559Z,100526.80
2018-02-12T10:38:10.131Z,100533.23
2018-02-12T10:40:37.708Z,100539.44
2018-02-12T10:43:05.298Z,100536.76
2018-02-12T10:45:32.922Z,100533.18
2018-02-12T10:48:00.548Z,100540.68
2018-02-12T10:50:28.264Z,100537.36
2018-02-12T10:52:56.781Z,100541.52
2018-02-12T10:55:24.359Z,100541.03
2018-02-12T10:57:51.935Z,100539.35
2018-02-12T11:00:19.512Z,100536.80
2018-02-12T11:02:47.136Z,100544.50
2018-02-12T11:05:14.706Z,100541.59
2018-02-12T11:07:42.972Z,100550.21
2018-02-12T11:10:11.359Z,100538.93
2018-02-12T11:12:38.934Z,100556.73
2018-02-12T11:15:07.320Z,100561.05
2018-02-12T11:17:35.979Z,100562.34
2018-02-12T11:20:04.566Z,100562.45
2018-02-12T11:22:32.142Z,100573.91
2018-02-12T11:25:00.521Z,100571.28
2018-02-12T11:27:28.927Z,100569.59
2018-02-12T11:29:57.475Z,100574.00
2018-02-12T11:32:25.857Z,100579.71
2018-02-12T11:34:54.232Z,100580.06
2018-02-12T11:37:22.609Z,100576.20
2018-02-12T11:39:51.076Z,100572.85
2018-02-12T11:42:19.432Z,100571.92
2018-02-12T11:44:47.047Z,100578.16
2018-02-12T11:47:15.518Z,100572.95
2018-02-12T11:49:43.994Z,100570.88
2018-02-12T11:52:12.429Z,100575.33
2018-02-12T11:54:40.046Z,100574.11
2018-02-12T11:57:08.399Z,100576.64
2018-02-12T11:59:36.007Z,100575.92
2018-02-12T12:02:04.923Z,100586.73
2018-02-12T12:04:33.331Z,100585.05
2018-02-12T12:07:01.821Z,100589.72
2018-02-12T12:09:30.228Z,100587.91
2018-02-12T12:11:58.850Z,100594.90
2018-02-12T12:14:27.359Z,100588.12
2018-02-12T12:16:55.099Z,100599.58
2018-02-12T12:19:22.771Z,100595.38
2018-02-12T12:21:50.390Z,100599.96
2018-02-12T12:24:17.958Z,100593.07
2018-02-12T12:26:45.569Z,100592.82
2018-02-12T12:29:13.915Z,100584.94
2018-02-12T12:31:41.494Z,100587.08
2018-02-12T12:34:09.962Z,100602.45
2018-02-12T12:36:38.302Z,100603.91
2018-02-12T12:39:06.931Z,100593.85
2018-02-12T12:41:34.515Z,100603.81
2018-02-12T12:44:02.666Z,100598.69
2018-02-12T12:46:30.514Z,100596.00
2018-02-12T12:48:59.021Z,100598.27
2018-02-12T12:51:26.595Z,100597.43
2018-02-12T12:53:55.067Z,100601.94
2018-02-12T12:56:22.639Z,100614.40
2018-02-12T12:58:50.210Z,100621.13
2018-02-12T13:01:17.782Z,100628.52
2018-02-12T13:03:45.365Z,100622.28
2018-02-12T13:06:12.954Z,100621.20
2018-02-12T13:08:40.666Z,100622.07
2018-02-12T13:11:09.424Z,100627.50
2018-02-12T13:13:37.039Z,100640.91
2018-02-12T13:16:04.615Z,100638.98
2018-02-12T13:18:32.306Z,100642.69
2018-02-12T13:20:59.974Z,100634.83
2018-02-12T13:23:28.462Z,100639.11
2018-02-12T13:25:56.082Z,100643.87
2018-02-12T13:28:23.657Z,100650.93
2018-02-12T13:30:51.230Z,100650.45
2018-02-12T13:33:18.810Z,100650.40
2018-02-12T13:35:46.382Z,100654.17
2018-02-12T13:38:14.726Z,100652.98
2018-02-12T13:40:42.943Z,100656.31
2018-02-12T13:43:10.576Z,100652.78
2018-02-12T13:45:38.980Z,100656.44
2018-02-12T13:48:06.567Z,100656.36
2018-02-12T13:50:34.138Z,100659.61
2018-02-12T13:53:01.740Z,100662.62
2018-02-12T13:55:30.109Z,100662.84
2018-02-12T13:57:58.389Z,100665.64
2018-02-12T14:00:25.976Z,100668.12
2018-02-12T14:02:53.618Z,100664.52
2018-02-12T14:05:21.198Z,100674.01
2018-02-12T14:07:49.735Z,100670.97
2018-02-12T14:10:17.430Z,100666.53
2018-02-12T14:12:45.008Z,100670.42
2018-02-12T14:15:12.583Z,100676.44
2018-02-12T14:17:40.156Z,100682.34
2018-02-12T14:20:07.768Z,100679.46
2018-02-12T14:22:35.351Z,100679.56
2018-02-12T14:25:02.925Z,100680.61
2018-02-12T14:27:31.305Z,100679.77
2018-02-12T14:29:58.922Z,100684.11
2018-02-12T14:32:27.286Z,100686.84
2018-02-12T14:34:54.878Z,100694.33
2018-02-12T14:37:22.451Z,100693.39
2018-02-12T14:39:50.062Z,100695.93
2018-02-12T14:42:17.634Z,100685.95
2018-02-12T14:44:45.224Z,100690.66
2018-02-12T14:47:12.844Z,100697.73
2018-02-12T14:49:41.467Z,100707.71
2018-02-12T14:52:09.745Z,100706.38
2018-02-12T14:54:37.319Z,100707.71
2018-02-12T14:57:04.971Z,100711.74
2018-02-12T14:59:32.640Z,100719.08
2018-02-12T15:02:01.165Z,100718.55
2018-02-12T15:04:29.667Z,100721.05
2018-02-12T15:06:57.239Z,100715.70
2018-02-12T15:09:24.852Z,100720.12
2018-02-12T15:11:52.432Z,100717.64
2018-02-12T15:14:20.963Z,100721.67
2018-02-12T15:16:49.383Z,100721.02
2018-02-12T15:19:17.735Z,100726.11
2018-02-12T15:21:46.073Z,100729.34
2018-02-12T15:24:14.338Z,100729.35
2018-02-12T15:26:42.754Z,100730.39
2018-02-12T15:29:11.029Z,100732.50
2018-02-12T15:31:39.426Z,100734.55
2018-02-12T15:34:07.893Z,100727.17
2018-02-12T15:36:36.383Z,100735.73
2018-02-12T15:39:04.767Z,100736.26
2018-02-12T15:41:33.244Z,100734.30
2018-02-12T15:44:01.664Z,100740.13
2018-02-12T15:46:30.020Z,100741.54
2018-02-12T15:48:58.381Z,100744.05
2018-02-12T15:51:26.861Z,100750.19
2018-02-12T15:53:55.270Z,100750.80
2018-02-12T15:56:23.622Z,100756.69
2018-02-12T15:58:52.039Z,100756.38
2018-02-12T16:01:20.333Z,100762.44
2018-02-12T16:03:47.906Z,100772.52
2018-02-12T16:06:15.488Z,100778.20
2018-02-12T16:08:43.914Z,100781.88
2018-02-12T16:11:12.462Z,100785.25
2018-02-12T16:13:40.846Z,100781.80
2018-02-12T16:16:09.321Z,100788.28
2018-02-12T16:18:36.896Z,100796.48
2018-02-12T16:21:05.322Z,100784.39
2018-02-12T16:23:33.660Z,100791.11
2018-02-12T16:26:01.233Z,100799.67
2018-02-12T16:28:28.806Z,100799.47
2018-02-12T16:30:56.369Z,100808.23
2018-02-12T16:33:23.938Z,100806.48
2018-02-12T16:35:51.509Z,100812.66
2018-02-12T16:38:19.083Z,100818.20
2018-02-12T16:40:47.666Z,100829.85
2018-02-12T16:43:15.335Z,100829.16
2018-02-12T16:45:42.911Z,100824.33
2018-02-12T16:48:10.588Z,100841.55
2018-02-12T16:50:38.250Z,100841.13
2018-02-12T16:53:05.862Z,100841.05
2018-02-12T16:55:33.430Z,100845.82
2018-02-12T16:58:01.739Z,100843.86
2018-02-12T17:00:30.094Z,100845.87
2018-02-12T17:02:57.707Z,100858.38
2018-02-12T17:05:25.350Z,100857.04
2018-02-12T17:07:53.018Z,100859.85
2018-02-12T17:10:21.289Z,100857.77
2018-02-12T17:12:48.874Z,100859.47
2018-02-12T17:15:17.372Z,100861.80
2018-02-12T17:17:44.967Z,100865.89
2018-02-12T17:20:12.539Z,100869.51
2018-02-12T17:22:40.112Z,100870.78
2018-02-12T17:25:07.719Z,100873.11
2018-02-12T17:27:35.498Z,100876.67
2018-02-12T17:30:03.122Z,100885.44
2018-02-12T17:32:30.740Z,100880.50
2018-02-12T17:34:58.317Z,100872.95
2018-02-12T17:37:26.156Z,100886.00
2018-02-12T17:39:54.044Z,100893.66
2018-02-12T17:42:21.681Z,100889.49
2018-02-12T17:44:49.294Z,100896.42
2018-02-12T17:47:16.905Z,100902.87
2018-02-12T17:49:44.584Z,100907.16
2018-02-12T17:52:12.211Z,100910.09
2018-02-12T17:54:39.840Z,100909.39
2018-02-12T17:57:08.318Z,100912.36
2018-02-12T17:59:36.031Z,100916.59
2018-02-12T18:02:03.650Z,100920.48
2018-02-12T18:04:31.227Z,100917.89
2018-02-12T18:06:58.871Z,100918.21
2018-02-12T18:09:27.327Z,100913.72
2018-02-12T18:11:54.914Z,100918.20
2018-02-12T18:14:27.033Z,100922.91
2018-02-12T18:16:54.824Z,100928.70
2018-02-12T18:19:22.399Z,100938.47
2018-02-12T18:21:50.023Z,100930.16
2018-02-12T18:24:17.703Z,100929.06
2018-02-12T18:26:45.312Z,100929.95
2018-02-12T18:29:13.802Z,100928.11
2018-02-12T18:31:41.374Z,100933.05
2018-02-12T18:34:08.991Z,100935.05
2018-02-12T18:36:36.628Z,100935.84
2018-02-12T18:39:04.246Z,100943.41
2018-02-12T18:41:32.409Z,100944.22
2018-02-12T18:43:59.995Z,100948.60
2018-02-12T18:46:27.578Z,100944.36
2018-02-12T18:48:55.150Z,100951.94
2018-02-12T18:51:22.736Z,100948.71
2018-02-12T18:53:50.318Z,100957.16
2018-02-12T18:56:17.945Z,100964.53
2018-02-12T18:58:48.401Z,100964.89
2018-02-12T19:01:16.015Z,100972.96
2018-02-12T19:03:44.841Z,100971.27
2018-02-12T19:06:13.811Z,100971.48
2018-02-12T19:08:41.378Z,100973.04
2018-02-12T19:11:09.014Z,100980.40
2018-02-12T19:13:36.642Z,100985.98
2018-02-12T19:16:05.104Z,100986.50
2018-02-12T19:18:32.683Z,100985.39
2018-02-12T19:24:04.906Z,100988.94
2018-02-12T19:26:42.132Z,100990.41
2018-02-12T19:29:13.614Z,100995.80
2018-02-12T19:31:42.191Z,100990.36
2018-02-12T19:34:10.747Z,100999.13
2018-02-12T19:36:40.201Z,100990.80
2018-02-12T19:39:08.237Z,101001.02
2018-02-12T19:41:36.672Z,100995.70
2018-02-12T19:44:04.313Z,101002.96
2018-02-12T19:46:32.460Z,101002.84
2018-02-12T19:49:00.998Z,101010.23
2018-02-12T19:51:28.590Z,101006.06
2018-02-12T19:53:57.047Z,101009.73
2018-02-12T19:56:24.642Z,101014.59
2018-02-12T19:58:56.272Z,101013.00
2018-02-12T20:01:25.378Z,101017.34
2018-02-12T20:03:53.437Z,101017.80
2018-02-12T20:06:22.756Z,101026.48
2018-02-12T20:08:50.493Z,101025.69
2018-02-12T20:11:18.074Z,101026.07
2018-02-12T20:13:52.512Z,101032.59
2018-02-12T20:16:29.686Z,101028.79
2018-02-12T20:18:58.386Z,101028.21
2018-02-12T20:21:26.752Z,101029.91
2018-02-12T20:23:55.511Z,101037.30
2018-02-12T20:26:23.734Z,101043.73
2018-02-12T20:28:51.343Z,101040.46
2018-02-12T20:31:19.003Z,101046.71
2018-02-12T20:33:46.661Z,101046.89
2018-02-12T20:36:14.246Z,101054.47
2018-02-12T20:38:41.935Z,101053.39
2018-02-12T20:41:10.566Z,101050.61
2018-02-12T20:43:38.192Z,101056.39
2018-02-12T20:46:05.827Z,101054.45
2018-02-12T20:48:33.462Z,101059.84
2018-02-12T20:51:01.619Z,101056.41
2018-02-12T20:53:29.359Z,101061.45
2018-02-12T20:55:57.845Z,101065.42
2018-02-12T20:58:25.463Z,101064.95
2018-02-12T21:00:53.051Z,101067.04
2018-02-12T21:03:20.755Z,101072.17
2018-02-12T21:05:48.539Z,101074.20
2018-02-12T21:08:17.134Z,101072.42
2018-02-12T21:10:44.723Z,101069.03
2018-02-12T21:13:13.247Z,101081.10
2018-02-12T21:15:41.910Z,101083.49
2018-02-12T21:18:10.563Z,101085.83
2018-02-12T21:20:39.064Z,101089.05
2018-02-12T21:23:08.404Z,101090.27
2018-02-12T21:25:36.159Z,101094.98
2018-02-12T21:28:03.750Z,101096.32
2018-02-12T21:30:31.402Z,101101.51
2018-02-12T21:32:59.482Z,101096.13
2018-02-12T21:35:27.538Z,101114.75
2018-02-12T21:37:55.263Z,101109.81
2018-02-12T21:40:22.846Z,101116.47
2018-02-12T21:42:51.423Z,101124.03
2018-02-12T21:45:19.016Z,101126.27
2018-02-12T21:47:47.912Z,101124.61
2018-02-12T21:50:16.546Z,101121.72
2018-02-12T21:52:44.158Z,101123.65
2018-02-12T21:55:11.760Z,101124.41
2018-02-12T21:57:39.367Z,101121.41
2018-02-12T22:00:07.012Z,101120.39
2018-02-12T22:02:34.633Z,101121.09
2018-02-12T22:05:02.216Z,101126.39
2018-02-12T22:07:29.838Z,101132.06
2018-02-12T22:09:57.424Z,101130.19
2018-02-12T22:12:25.052Z,101130.61
2018-02-12T22:14:53.353Z,101136.45
2018-02-12T22:17:21.826Z,101142.07
2018-02-12T22:19:50.191Z,101141.42
2018-02-12T22:22:17.778Z,101143.41
2018-02-12T22:24:45.366Z,101143.03
2018-02-12T22:27:12.953Z,101136.13
2018-02-12T22:29:40.538Z,101147.17
2018-02-12T22:32:08.127Z,101140.81
2018-02-12T22:34:35.713Z,101140.66
2018-02-12T22:37:03.518Z,101147.70
2018-02-12T22:39:31.112Z,101140.53
2018-02-12T22:41:58.697Z,101144.52
2018-02-12T22:44:26.283Z,101148.09
2018-02-12T22:46:53.920Z,101142.00
2018-02-12T22:49:21.502Z,101140.00
2018-02-12T22:51:49.090Z,101140.05
2018-02-12T22:54:16.671Z,101148.09
2018-02-12T22:56:44.319Z,101145.09
2018-02-12T22:59:11.912Z,101146.67
2018-02-12T23:01:40.273Z,101143.61
2018-02-12T23:04:07.858Z,101153.93
2018-02-12T23:06:35.448Z,101150.80
2018-02-12T23:09:03.747Z,101146.71
2018-02-12T23:11:31.334Z,101157.37
2018-02-12T23:13:58.930Z,101159.69
2018-02-12T23:16:27.423Z,101164.29
2018-02-12T23:18:55.792Z,101158.21
2018-02-12T23:21:23.376Z,101166.00
2018-02-12T23:23:50.966Z,101170.28
2018-02-12T23:26:18.559Z,101169.95
2018-02-12T23:28:46.962Z,101167.72
2018-02-12T23:31:14.583Z,101169.77
2018-02-12T23:33:43.083Z,101171.66
2018-02-12T23:36:11.442Z,101175.30
2018-02-12T23:38:39.067Z,101177.60
2018-02-12T23:41:07.434Z,101181.49
2018-02-12T23:43:35.018Z,101181.49
2018-02-12T23:46:03.511Z,101193.73
2018-02-12T23:48:31.104Z,101185.22
2018-02-12T23:50:59.506Z,101187.09
2018-02-12T23:53:27.898Z,101193.39
2018-02-12T23:55:56.183Z,101197.97
2018-02-12T23:58:24.583Z,101200.06
